sensor_id;sensor_type;location;lat;lon;timestamp;P1;durP1;ratioP1;P2;durP2;ratioP2
68989;SDS011;56046;47.270;11.368;2024-01-27T00:01:47;22.23;;;11.43;;
68989;SDS011;56046;47.270;11.368;2024-01-27T00:04:12;15.20;;;7.20;;
68989;SDS011;56046;47.270;11.368;2024-01-27T00:06:37;10.27;;;4.50;;
68989;SDS011;56046;47.270;11.368;2024-01-27T00:09:03;9.27;;;4.13;;
68989;SDS011;56046;47.270;11.368;2024-01-27T00:11:30;10.25;;;3.70;;
68989;SDS011;56046;47.270;11.368;2024-01-27T00:13:56;7.40;;;2.28;;
68989;SDS011;56046;47.270;11.368;2024-01-27T00:16:21;3.80;;;1.80;;
68989;SDS011;56046;47.270;11.368;2024-01-27T00:18:47;5.40;;;1.50;;
68989;SDS011;56046;47.270;11.368;2024-01-27T00:21:12;3.43;;;1.50;;
68989;SDS011;56046;47.270;11.368;2024-01-27T00:23:37;2.83;;;1.17;;
68989;SDS011;56046;47.270;11.368;2024-01-27T00:26:03;3.87;;;1.90;;
68989;SDS011;56046;47.270;11.368;2024-01-27T00:28:28;2.65;;;1.15;;
68989;SDS011;56046;47.270;11.368;2024-01-27T00:30:54;2.10;;;0.97;;
68989;SDS011;56046;47.270;11.368;2024-01-27T00:33:19;2.87;;;1.40;;
68989;SDS011;56046;47.270;11.368;2024-01-27T00:35:44;4.07;;;1.57;;
68989;SDS011;56046;47.270;11.368;2024-01-27T00:38:09;3.63;;;1.40;;
68989;SDS011;56046;47.270;11.368;2024-01-27T00:40:35;3.77;;;1.70;;
68989;SDS011;56046;47.270;11.368;2024-01-27T00:43:02;2.70;;;0.93;;
68989;SDS011;56046;47.270;11.368;2024-01-27T00:45:27;2.72;;;1.33;;
68989;SDS011;56046;47.270;11.368;2024-01-27T00:47:53;2.88;;;1.25;;
68989;SDS011;56046;47.270;11.368;2024-01-27T00:50:18;5.37;;;1.10;;
68989;SDS011;56046;47.270;11.368;2024-01-27T00:52:44;6.47;;;1.57;;
68989;SDS011;56046;47.270;11.368;2024-01-27T00:55:09;2.90;;;1.23;;
68989;SDS011;56046;47.270;11.368;2024-01-27T00:57:37;2.63;;;1.10;;
68989;SDS011;56046;47.270;11.368;2024-01-27T01:00:06;4.13;;;1.30;;
68989;SDS011;56046;47.270;11.368;2024-01-27T01:02:31;5.22;;;1.20;;
68989;SDS011;56046;47.270;11.368;2024-01-27T01:04:56;4.10;;;1.30;;
68989;SDS011;56046;47.270;11.368;2024-01-27T01:07:22;4.87;;;1.50;;
68989;SDS011;56046;47.270;11.368;2024-01-27T01:09:47;5.00;;;1.40;;
68989;SDS011;56046;47.270;11.368;2024-01-27T01:12:12;4.47;;;1.13;;
68989;SDS011;56046;47.270;11.368;2024-01-27T01:14:39;2.45;;;1.20;;
68989;SDS011;56046;47.270;11.368;2024-01-27T01:17:05;2.77;;;1.40;;
68989;SDS011;56046;47.270;11.368;2024-01-27T01:19:30;5.77;;;1.70;;
68989;SDS011;56046;47.270;11.368;2024-01-27T01:21:55;4.07;;;1.40;;
68989;SDS011;56046;47.270;11.368;2024-01-27T01:24:21;3.87;;;1.60;;
68989;SDS011;56046;47.270;11.368;2024-01-27T01:26:46;3.13;;;1.83;;
68989;SDS011;56046;47.270;11.368;2024-01-27T01:29:11;6.00;;;1.60;;
68989;SDS011;56046;47.270;11.368;2024-01-27T01:31:37;4.60;;;1.50;;
68989;SDS011;56046;47.270;11.368;2024-01-27T01:34:02;5.83;;;1.63;;
68989;SDS011;56046;47.270;11.368;2024-01-27T01:36:27;3.77;;;1.63;;
68989;SDS011;56046;47.270;11.368;2024-01-27T01:38:52;4.53;;;1.50;;
68989;SDS011;56046;47.270;11.368;2024-01-27T01:41:18;3.83;;;1.60;;
68989;SDS011;56046;47.270;11.368;2024-01-27T01:43:43;3.93;;;1.50;;
68989;SDS011;56046;47.270;11.368;2024-01-27T01:46:08;4.97;;;1.60;;
68989;SDS011;56046;47.270;11.368;2024-01-27T01:48:33;3.70;;;1.60;;
68989;SDS011;56046;47.270;11.368;2024-01-27T01:50:59;4.67;;;1.70;;
68989;SDS011;56046;47.270;11.368;2024-01-27T01:53:25;5.33;;;1.77;;
68989;SDS011;56046;47.270;11.368;2024-01-27T01:55:50;4.63;;;1.67;;
68989;SDS011;56046;47.270;11.368;2024-01-27T01:58:16;4.23;;;1.87;;
68989;SDS011;56046;47.270;11.368;2024-01-27T02:00:42;3.88;;;1.70;;
68989;SDS011;56046;47.270;11.368;2024-01-27T02:03:13;4.43;;;2.03;;
68989;SDS011;56046;47.270;11.368;2024-01-27T02:05:39;4.53;;;1.63;;
68989;SDS011;56046;47.270;11.368;2024-01-27T02:08:04;4.77;;;1.73;;
68989;SDS011;56046;47.270;11.368;2024-01-27T02:10:30;5.38;;;2.10;;
68989;SDS011;56046;47.270;11.368;2024-01-27T02:13:01;4.20;;;1.87;;
68989;SDS011;56046;47.270;11.368;2024-01-27T02:15:26;4.03;;;1.60;;
68989;SDS011;56046;47.270;11.368;2024-01-27T02:17:52;6.17;;;2.30;;
68989;SDS011;56046;47.270;11.368;2024-01-27T02:20:17;3.60;;;2.13;;
68989;SDS011;56046;47.270;11.368;2024-01-27T02:22:42;4.43;;;1.80;;
68989;SDS011;56046;47.270;11.368;2024-01-27T02:25:07;6.57;;;1.50;;
68989;SDS011;56046;47.270;11.368;2024-01-27T02:27:33;3.90;;;1.57;;
68989;SDS011;56046;47.270;11.368;2024-01-27T02:29:58;2.73;;;1.50;;
68989;SDS011;56046;47.270;11.368;2024-01-27T02:32:23;4.23;;;1.40;;
68989;SDS011;56046;47.270;11.368;2024-01-27T02:34:49;3.43;;;1.30;;
68989;SDS011;56046;47.270;11.368;2024-01-27T02:37:14;3.43;;;1.40;;
68989;SDS011;56046;47.270;11.368;2024-01-27T02:39:39;3.53;;;1.40;;
68989;SDS011;56046;47.270;11.368;2024-01-27T02:42:05;4.03;;;1.42;;
68989;SDS011;56046;47.270;11.368;2024-01-27T02:44:30;3.80;;;1.40;;
68989;SDS011;56046;47.270;11.368;2024-01-27T02:46:56;2.83;;;1.30;;
68989;SDS011;56046;47.270;11.368;2024-01-27T02:49:21;3.43;;;1.80;;
68989;SDS011;56046;47.270;11.368;2024-01-27T02:51:46;3.90;;;1.50;;
68989;SDS011;56046;47.270;11.368;2024-01-27T02:54:13;2.70;;;1.35;;
68989;SDS011;56046;47.270;11.368;2024-01-27T02:56:38;3.20;;;1.30;;
68989;SDS011;56046;47.270;11.368;2024-01-27T02:59:03;4.40;;;1.43;;
68989;SDS011;56046;47.270;11.368;2024-01-27T03:01:28;3.90;;;1.20;;
68989;SDS011;56046;47.270;11.368;2024-01-27T03:03:54;5.10;;;1.63;;
68989;SDS011;56046;47.270;11.368;2024-01-27T03:06:19;3.93;;;1.40;;
68989;SDS011;56046;47.270;11.368;2024-01-27T03:08:44;4.60;;;1.63;;
68989;SDS011;56046;47.270;11.368;2024-01-27T03:11:09;2.87;;;1.60;;
68989;SDS011;56046;47.270;11.368;2024-01-27T03:13:34;3.63;;;1.50;;
68989;SDS011;56046;47.270;11.368;2024-01-27T03:16:00;3.50;;;1.40;;
68989;SDS011;56046;47.270;11.368;2024-01-27T03:18:25;2.90;;;1.57;;
68989;SDS011;56046;47.270;11.368;2024-01-27T03:20:50;4.37;;;1.40;;
68989;SDS011;56046;47.270;11.368;2024-01-27T03:23:16;2.78;;;1.20;;
68989;SDS011;56046;47.270;11.368;2024-01-27T03:25:41;4.27;;;1.57;;
68989;SDS011;56046;47.270;11.368;2024-01-27T03:28:06;4.33;;;1.10;;
68989;SDS011;56046;47.270;11.368;2024-01-27T03:30:32;3.63;;;1.30;;
68989;SDS011;56046;47.270;11.368;2024-01-27T03:32:57;5.10;;;1.20;;
68989;SDS011;56046;47.270;11.368;2024-01-27T03:35:22;2.93;;;1.37;;
68989;SDS011;56046;47.270;11.368;2024-01-27T03:37:47;3.30;;;1.50;;
68989;SDS011;56046;47.270;11.368;2024-01-27T03:40:14;2.80;;;1.30;;
68989;SDS011;56046;47.270;11.368;2024-01-27T03:42:39;3.53;;;1.30;;
68989;SDS011;56046;47.270;11.368;2024-01-27T03:45:04;4.10;;;1.60;;
68989;SDS011;56046;47.270;11.368;2024-01-27T03:47:30;4.53;;;1.40;;
68989;SDS011;56046;47.270;11.368;2024-01-27T03:49:55;4.23;;;1.40;;
68989;SDS011;56046;47.270;11.368;2024-01-27T03:52:20;3.97;;;1.70;;
68989;SDS011;56046;47.270;11.368;2024-01-27T03:54:46;2.97;;;1.70;;
68989;SDS011;56046;47.270;11.368;2024-01-27T03:57:11;5.03;;;1.80;;
68989;SDS011;56046;47.270;11.368;2024-01-27T03:59:36;5.53;;;1.60;;
68989;SDS011;56046;47.270;11.368;2024-01-27T04:02:01;3.60;;;1.20;;
68989;SDS011;56046;47.270;11.368;2024-01-27T04:04:27;4.15;;;1.30;;
68989;SDS011;56046;47.270;11.368;2024-01-27T04:06:52;3.47;;;1.60;;
68989;SDS011;56046;47.270;11.368;2024-01-27T04:09:17;4.72;;;1.42;;
68989;SDS011;56046;47.270;11.368;2024-01-27T04:11:43;5.65;;;1.58;;
68989;SDS011;56046;47.270;11.368;2024-01-27T04:14:08;4.63;;;1.30;;
68989;SDS011;56046;47.270;11.368;2024-01-27T04:16:33;5.50;;;1.30;;
68989;SDS011;56046;47.270;11.368;2024-01-27T04:18:59;2.90;;;1.40;;
68989;SDS011;56046;47.270;11.368;2024-01-27T04:21:24;3.53;;;1.50;;
68989;SDS011;56046;47.270;11.368;2024-01-27T04:23:49;3.23;;;1.30;;
68989;SDS011;56046;47.270;11.368;2024-01-27T04:26:14;4.40;;;1.40;;
68989;SDS011;56046;47.270;11.368;2024-01-27T04:28:40;4.93;;;1.40;;
68989;SDS011;56046;47.270;11.368;2024-01-27T04:31:05;3.00;;;1.17;;
68989;SDS011;56046;47.270;11.368;2024-01-27T04:33:31;3.35;;;1.33;;
68989;SDS011;56046;47.270;11.368;2024-01-27T04:35:56;7.10;;;1.80;;
68989;SDS011;56046;47.270;11.368;2024-01-27T04:38:21;4.60;;;1.43;;
68989;SDS011;56046;47.270;11.368;2024-01-27T04:40:46;4.30;;;1.40;;
68989;SDS011;56046;47.270;11.368;2024-01-27T04:43:15;4.67;;;1.20;;
68989;SDS011;56046;47.270;11.368;2024-01-27T04:45:41;4.75;;;1.45;;
68989;SDS011;56046;47.270;11.368;2024-01-27T04:48:06;3.63;;;1.40;;
68989;SDS011;56046;47.270;11.368;2024-01-27T04:50:32;2.87;;;1.43;;
68989;SDS011;56046;47.270;11.368;2024-01-27T04:52:57;5.20;;;1.77;;
68989;SDS011;56046;47.270;11.368;2024-01-27T04:55:22;5.57;;;1.40;;
68989;SDS011;56046;47.270;11.368;2024-01-27T04:57:47;4.17;;;1.50;;
68989;SDS011;56046;47.270;11.368;2024-01-27T05:00:13;3.70;;;1.50;;
68989;SDS011;56046;47.270;11.368;2024-01-27T05:02:41;4.82;;;1.60;;
68989;SDS011;56046;47.270;11.368;2024-01-27T05:05:07;4.33;;;1.57;;
68989;SDS011;56046;47.270;11.368;2024-01-27T05:07:32;5.85;;;1.48;;
68989;SDS011;56046;47.270;11.368;2024-01-27T05:09:57;6.40;;;1.50;;
68989;SDS011;56046;47.270;11.368;2024-01-27T05:12:23;3.83;;;1.53;;
68989;SDS011;56046;47.270;11.368;2024-01-27T05:14:48;4.10;;;1.83;;
68989;SDS011;56046;47.270;11.368;2024-01-27T05:17:13;4.67;;;1.77;;
68989;SDS011;56046;47.270;11.368;2024-01-27T05:19:39;7.87;;;1.63;;
68989;SDS011;56046;47.270;11.368;2024-01-27T05:22:04;5.10;;;1.50;;
68989;SDS011;56046;47.270;11.368;2024-01-27T05:24:29;2.93;;;1.47;;
68989;SDS011;56046;47.270;11.368;2024-01-27T05:26:55;3.20;;;1.38;;
68989;SDS011;56046;47.270;11.368;2024-01-27T05:29:21;3.97;;;1.50;;
68989;SDS011;56046;47.270;11.368;2024-01-27T05:31:46;5.70;;;1.87;;
68989;SDS011;56046;47.270;11.368;2024-01-27T05:34:11;6.33;;;1.47;;
68989;SDS011;56046;47.270;11.368;2024-01-27T05:36:36;5.37;;;1.70;;
68989;SDS011;56046;47.270;11.368;2024-01-27T05:39:02;4.17;;;1.43;;
68989;SDS011;56046;47.270;11.368;2024-01-27T05:41:29;3.65;;;1.52;;
68989;SDS011;56046;47.270;11.368;2024-01-27T05:43:55;5.47;;;1.73;;
68989;SDS011;56046;47.270;11.368;2024-01-27T05:46:22;5.78;;;1.77;;
68989;SDS011;56046;47.270;11.368;2024-01-27T05:48:47;5.17;;;1.50;;
68989;SDS011;56046;47.270;11.368;2024-01-27T05:51:12;4.50;;;1.63;;
68989;SDS011;56046;47.270;11.368;2024-01-27T05:53:37;4.63;;;1.57;;
68989;SDS011;56046;47.270;11.368;2024-01-27T05:56:03;6.97;;;1.50;;
68989;SDS011;56046;47.270;11.368;2024-01-27T05:58:28;5.00;;;1.77;;
68989;SDS011;56046;47.270;11.368;2024-01-27T06:00:53;4.33;;;1.53;;
68989;SDS011;56046;47.270;11.368;2024-01-27T06:03:18;4.87;;;1.40;;
68989;SDS011;56046;47.270;11.368;2024-01-27T06:05:44;4.07;;;1.60;;
68989;SDS011;56046;47.270;11.368;2024-01-27T06:08:09;3.60;;;1.30;;
68989;SDS011;56046;47.270;11.368;2024-01-27T06:10:34;8.68;;;1.80;;
68989;SDS011;56046;47.270;11.368;2024-01-27T06:13:02;4.53;;;1.37;;
68989;SDS011;56046;47.270;11.368;2024-01-27T06:15:27;4.57;;;1.55;;
68989;SDS011;56046;47.270;11.368;2024-01-27T06:17:52;4.73;;;1.70;;
68989;SDS011;56046;47.270;11.368;2024-01-27T06:20:17;4.77;;;1.60;;
68989;SDS011;56046;47.270;11.368;2024-01-27T06:22:43;6.07;;;1.55;;
68989;SDS011;56046;47.270;11.368;2024-01-27T06:25:09;6.53;;;1.57;;
68989;SDS011;56046;47.270;11.368;2024-01-27T06:27:35;4.38;;;1.60;;
68989;SDS011;56046;47.270;11.368;2024-01-27T06:30:01;4.50;;;1.47;;
68989;SDS011;56046;47.270;11.368;2024-01-27T06:32:26;4.20;;;1.73;;
68989;SDS011;56046;47.270;11.368;2024-01-27T06:34:51;3.93;;;1.50;;
68989;SDS011;56046;47.270;11.368;2024-01-27T06:37:16;5.23;;;1.43;;
68989;SDS011;56046;47.270;11.368;2024-01-27T06:39:42;4.97;;;1.80;;
68989;SDS011;56046;47.270;11.368;2024-01-27T06:42:07;4.63;;;1.63;;
68989;SDS011;56046;47.270;11.368;2024-01-27T06:44:32;5.07;;;2.10;;
68989;SDS011;56046;47.270;11.368;2024-01-27T06:46:57;6.20;;;1.30;;
68989;SDS011;56046;47.270;11.368;2024-01-27T06:49:23;8.37;;;1.77;;
68989;SDS011;56046;47.270;11.368;2024-01-27T06:51:48;6.73;;;1.90;;
68989;SDS011;56046;47.270;11.368;2024-01-27T06:54:13;11.10;;;2.17;;
68989;SDS011;56046;47.270;11.368;2024-01-27T06:56:38;4.40;;;1.60;;
68989;SDS011;56046;47.270;11.368;2024-01-27T06:59:04;6.57;;;2.00;;
68989;SDS011;56046;47.270;11.368;2024-01-27T07:01:29;5.37;;;2.00;;
68989;SDS011;56046;47.270;11.368;2024-01-27T07:03:54;8.43;;;3.37;;
68989;SDS011;56046;47.270;11.368;2024-01-27T07:06:19;6.23;;;2.33;;
68989;SDS011;56046;47.270;11.368;2024-01-27T07:08:45;10.37;;;3.17;;
68989;SDS011;56046;47.270;11.368;2024-01-27T07:11:10;8.43;;;3.10;;
68989;SDS011;56046;47.270;11.368;2024-01-27T07:13:35;4.97;;;2.40;;
68989;SDS011;56046;47.270;11.368;2024-01-27T07:16:00;5.93;;;2.40;;
68989;SDS011;56046;47.270;11.368;2024-01-27T07:18:26;7.30;;;2.10;;
68989;SDS011;56046;47.270;11.368;2024-01-27T07:20:51;6.93;;;2.53;;
68989;SDS011;56046;47.270;11.368;2024-01-27T07:23:16;6.00;;;2.23;;
68989;SDS011;56046;47.270;11.368;2024-01-27T07:25:42;5.07;;;2.60;;
68989;SDS011;56046;47.270;11.368;2024-01-27T07:28:08;7.47;;;2.90;;
68989;SDS011;56046;47.270;11.368;2024-01-27T07:30:33;6.63;;;2.63;;
68989;SDS011;56046;47.270;11.368;2024-01-27T07:32:58;6.23;;;2.37;;
68989;SDS011;56046;47.270;11.368;2024-01-27T07:35:23;7.63;;;2.53;;
68989;SDS011;56046;47.270;11.368;2024-01-27T07:37:49;8.70;;;4.07;;
68989;SDS011;56046;47.270;11.368;2024-01-27T07:40:14;8.63;;;4.10;;
68989;SDS011;56046;47.270;11.368;2024-01-27T07:42:39;8.03;;;3.40;;
68989;SDS011;56046;47.270;11.368;2024-01-27T07:45:06;9.98;;;4.00;;
68989;SDS011;56046;47.270;11.368;2024-01-27T07:47:31;9.30;;;5.17;;
68989;SDS011;56046;47.270;11.368;2024-01-27T07:49:56;9.97;;;4.63;;
68989;SDS011;56046;47.270;11.368;2024-01-27T07:52:22;10.40;;;4.20;;
68989;SDS011;56046;47.270;11.368;2024-01-27T07:54:47;7.97;;;3.40;;
68989;SDS011;56046;47.270;11.368;2024-01-27T07:57:12;8.43;;;3.37;;
68989;SDS011;56046;47.270;11.368;2024-01-27T07:59:38;7.60;;;2.83;;
68989;SDS011;56046;47.270;11.368;2024-01-27T08:02:03;7.57;;;2.97;;
68989;SDS011;56046;47.270;11.368;2024-01-27T08:04:28;7.67;;;2.93;;
68989;SDS011;56046;47.270;11.368;2024-01-27T08:06:53;9.30;;;3.27;;
68989;SDS011;56046;47.270;11.368;2024-01-27T08:09:19;7.43;;;3.73;;
68989;SDS011;56046;47.270;11.368;2024-01-27T08:11:44;5.88;;;2.78;;
68989;SDS011;56046;47.270;11.368;2024-01-27T08:14:10;11.40;;;3.00;;
68989;SDS011;56046;47.270;11.368;2024-01-27T08:16:35;7.67;;;2.77;;
68989;SDS011;56046;47.270;11.368;2024-01-27T08:19:00;7.53;;;2.93;;
68989;SDS011;56046;47.270;11.368;2024-01-27T08:21:26;6.60;;;3.20;;
68989;SDS011;56046;47.270;11.368;2024-01-27T08:23:51;12.37;;;3.90;;
68989;SDS011;56046;47.270;11.368;2024-01-27T08:26:16;8.17;;;3.10;;
68989;SDS011;56046;47.270;11.368;2024-01-27T08:28:43;9.15;;;4.15;;
68989;SDS011;56046;47.270;11.368;2024-01-27T08:31:09;6.00;;;2.90;;
68989;SDS011;56046;47.270;11.368;2024-01-27T08:33:34;6.07;;;2.80;;
68989;SDS011;56046;47.270;11.368;2024-01-27T08:36:00;5.93;;;2.77;;
68989;SDS011;56046;47.270;11.368;2024-01-27T08:38:25;5.87;;;2.80;;
68989;SDS011;56046;47.270;11.368;2024-01-27T08:40:50;6.13;;;3.40;;
68989;SDS011;56046;47.270;11.368;2024-01-27T08:43:15;11.60;;;3.27;;
68989;SDS011;56046;47.270;11.368;2024-01-27T08:45:41;9.03;;;3.47;;
68989;SDS011;56046;47.270;11.368;2024-01-27T08:48:06;9.83;;;4.77;;
68989;SDS011;56046;47.270;11.368;2024-01-27T08:50:32;12.95;;;6.78;;
68989;SDS011;56046;47.270;11.368;2024-01-27T08:52:57;8.53;;;3.53;;
68989;SDS011;56046;47.270;11.368;2024-01-27T08:55:22;6.73;;;3.37;;
68989;SDS011;56046;47.270;11.368;2024-01-27T08:57:49;8.35;;;3.30;;
68989;SDS011;56046;47.270;11.368;2024-01-27T09:00:14;8.17;;;3.40;;
68989;SDS011;56046;47.270;11.368;2024-01-27T09:02:41;6.82;;;3.22;;
68989;SDS011;56046;47.270;11.368;2024-01-27T09:05:06;7.63;;;3.70;;
68989;SDS011;56046;47.270;11.368;2024-01-27T09:07:33;9.40;;;3.83;;
68989;SDS011;56046;47.270;11.368;2024-01-27T09:09:58;8.05;;;3.30;;
68989;SDS011;56046;47.270;11.368;2024-01-27T09:12:23;10.27;;;3.67;;
68989;SDS011;56046;47.270;11.368;2024-01-27T09:14:49;7.90;;;3.10;;
68989;SDS011;56046;47.270;11.368;2024-01-27T09:17:14;7.50;;;3.30;;
68989;SDS011;56046;47.270;11.368;2024-01-27T09:19:39;8.18;;;2.88;;
68989;SDS011;56046;47.270;11.368;2024-01-27T09:22:05;7.43;;;3.30;;
68989;SDS011;56046;47.270;11.368;2024-01-27T09:24:30;6.10;;;2.60;;
68989;SDS011;56046;47.270;11.368;2024-01-27T09:26:55;5.43;;;2.80;;
68989;SDS011;56046;47.270;11.368;2024-01-27T09:29:20;6.27;;;2.73;;
68989;SDS011;56046;47.270;11.368;2024-01-27T09:31:47;6.13;;;2.90;;
68989;SDS011;56046;47.270;11.368;2024-01-27T09:34:13;10.07;;;4.05;;
68989;SDS011;56046;47.270;11.368;2024-01-27T09:36:38;8.03;;;2.60;;
68989;SDS011;56046;47.270;11.368;2024-01-27T09:39:04;7.63;;;3.00;;
68989;SDS011;56046;47.270;11.368;2024-01-27T09:41:30;7.43;;;2.80;;
68989;SDS011;56046;47.270;11.368;2024-01-27T09:43:57;5.78;;;3.00;;
68989;SDS011;56046;47.270;11.368;2024-01-27T09:46:24;7.63;;;3.30;;
68989;SDS011;56046;47.270;11.368;2024-01-27T09:48:50;11.50;;;4.10;;
68989;SDS011;56046;47.270;11.368;2024-01-27T09:51:16;6.70;;;3.10;;
68989;SDS011;56046;47.270;11.368;2024-01-27T09:53:41;6.90;;;2.87;;
68989;SDS011;56046;47.270;11.368;2024-01-27T09:56:06;6.53;;;2.80;;
68989;SDS011;56046;47.270;11.368;2024-01-27T09:58:32;8.60;;;2.90;;
68989;SDS011;56046;47.270;11.368;2024-01-27T10:00:58;5.93;;;3.10;;
68989;SDS011;56046;47.270;11.368;2024-01-27T10:03:24;6.70;;;3.10;;
68989;SDS011;56046;47.270;11.368;2024-01-27T10:05:50;9.00;;;3.60;;
68989;SDS011;56046;47.270;11.368;2024-01-27T10:08:16;6.30;;;3.25;;
68989;SDS011;56046;47.270;11.368;2024-01-27T10:10:41;6.63;;;3.67;;
68989;SDS011;56046;47.270;11.368;2024-01-27T10:13:07;8.47;;;4.20;;
68989;SDS011;56046;47.270;11.368;2024-01-27T10:15:32;7.60;;;3.53;;
68989;SDS011;56046;47.270;11.368;2024-01-27T10:18:07;7.53;;;3.13;;
68989;SDS011;56046;47.270;11.368;2024-01-27T10:20:33;8.37;;;3.20;;
68989;SDS011;56046;47.270;11.368;2024-01-27T10:22:59;9.25;;;2.88;;
68989;SDS011;56046;47.270;11.368;2024-01-27T10:25:24;8.80;;;3.00;;
68989;SDS011;56046;47.270;11.368;2024-01-27T10:27:55;6.18;;;2.92;;
68989;SDS011;56046;47.270;11.368;2024-01-27T10:30:20;4.97;;;2.70;;
68989;SDS011;56046;47.270;11.368;2024-01-27T10:32:55;8.27;;;3.47;;
68989;SDS011;56046;47.270;11.368;2024-01-27T10:35:21;7.50;;;3.67;;
68989;SDS011;56046;47.270;11.368;2024-01-27T10:37:47;9.80;;;3.33;;
68989;SDS011;56046;47.270;11.368;2024-01-27T10:40:16;8.77;;;3.25;;
68989;SDS011;56046;47.270;11.368;2024-01-27T10:42:41;7.47;;;3.50;;
68989;SDS011;56046;47.270;11.368;2024-01-27T10:45:07;9.95;;;3.70;;
68989;SDS011;56046;47.270;11.368;2024-01-27T10:47:33;7.23;;;3.10;;
68989;SDS011;56046;47.270;11.368;2024-01-27T10:49:59;6.60;;;3.40;;
68989;SDS011;56046;47.270;11.368;2024-01-27T10:52:25;6.78;;;2.80;;
68989;SDS011;56046;47.270;11.368;2024-01-27T10:55:02;9.38;;;3.00;;
68989;SDS011;56046;47.270;11.368;2024-01-27T10:57:31;6.35;;;3.00;;
68989;SDS011;56046;47.270;11.368;2024-01-27T10:59:57;5.75;;;2.88;;
68989;SDS011;56046;47.270;11.368;2024-01-27T11:02:23;7.53;;;3.30;;
68989;SDS011;56046;47.270;11.368;2024-01-27T11:04:49;6.38;;;3.00;;
68989;SDS011;56046;47.270;11.368;2024-01-27T11:07:16;6.47;;;2.80;;
68989;SDS011;56046;47.270;11.368;2024-01-27T11:09:42;7.63;;;3.20;;
68989;SDS011;56046;47.270;11.368;2024-01-27T11:12:08;5.78;;;3.22;;
68989;SDS011;56046;47.270;11.368;2024-01-27T11:14:34;6.60;;;3.13;;
68989;SDS011;56046;47.270;11.368;2024-01-27T11:16:59;5.77;;;3.03;;
68989;SDS011;56046;47.270;11.368;2024-01-27T11:19:24;6.07;;;3.13;;
68989;SDS011;56046;47.270;11.368;2024-01-27T11:21:59;6.20;;;2.37;;
68989;SDS011;56046;47.270;11.368;2024-01-27T11:24:25;6.97;;;2.78;;
68989;SDS011;56046;47.270;11.368;2024-01-27T11:26:59;6.27;;;2.47;;
68989;SDS011;56046;47.270;11.368;2024-01-27T11:29:24;4.80;;;2.30;;
68989;SDS011;56046;47.270;11.368;2024-01-27T11:31:51;5.80;;;2.05;;
68989;SDS011;56046;47.270;11.368;2024-01-27T11:34:17;5.77;;;2.77;;
68989;SDS011;56046;47.270;11.368;2024-01-27T11:36:43;4.50;;;2.10;;
68989;SDS011;56046;47.270;11.368;2024-01-27T11:39:24;4.30;;;2.17;;
68989;SDS011;56046;47.270;11.368;2024-01-27T11:41:51;5.35;;;1.98;;
68989;SDS011;56046;47.270;11.368;2024-01-27T11:44:16;4.43;;;2.37;;
68989;SDS011;56046;47.270;11.368;2024-01-27T11:46:43;5.97;;;1.95;;
68989;SDS011;56046;47.270;11.368;2024-01-27T11:49:09;4.50;;;2.08;;
68989;SDS011;56046;47.270;11.368;2024-01-27T11:51:39;3.67;;;1.73;;
68989;SDS011;56046;47.270;11.368;2024-01-27T11:54:04;5.10;;;2.40;;
68989;SDS011;56046;47.270;11.368;2024-01-27T11:56:30;5.00;;;2.00;;
68989;SDS011;56046;47.270;11.368;2024-01-27T11:58:55;5.50;;;2.20;;
68989;SDS011;56046;47.270;11.368;2024-01-27T12:01:20;4.67;;;2.20;;
68989;SDS011;56046;47.270;11.368;2024-01-27T12:03:45;5.03;;;1.60;;
68989;SDS011;56046;47.270;11.368;2024-01-27T12:06:11;3.67;;;2.17;;
68989;SDS011;56046;47.270;11.368;2024-01-27T12:08:36;4.67;;;2.13;;
68989;SDS011;56046;47.270;11.368;2024-01-27T12:11:02;4.97;;;2.03;;
68989;SDS011;56046;47.270;11.368;2024-01-27T12:13:27;3.93;;;1.80;;
68989;SDS011;56046;47.270;11.368;2024-01-27T12:15:53;3.53;;;1.60;;
68989;SDS011;56046;47.270;11.368;2024-01-27T12:18:18;4.77;;;1.83;;
68989;SDS011;56046;47.270;11.368;2024-01-27T12:20:44;3.63;;;2.00;;
68989;SDS011;56046;47.270;11.368;2024-01-27T12:23:09;2.87;;;1.70;;
68989;SDS011;56046;47.270;11.368;2024-01-27T12:25:35;5.03;;;2.42;;
68989;SDS011;56046;47.270;11.368;2024-01-27T12:28:04;4.50;;;2.20;;
68989;SDS011;56046;47.270;11.368;2024-01-27T12:30:33;6.28;;;2.28;;
68989;SDS011;56046;47.270;11.368;2024-01-27T12:32:59;5.28;;;2.72;;
68989;SDS011;56046;47.270;11.368;2024-01-27T12:35:25;4.97;;;2.30;;
68989;SDS011;56046;47.270;11.368;2024-01-27T12:37:51;5.97;;;2.70;;
68989;SDS011;56046;47.270;11.368;2024-01-27T12:40:18;5.78;;;2.90;;
68989;SDS011;56046;47.270;11.368;2024-01-27T12:42:44;5.00;;;2.40;;
68989;SDS011;56046;47.270;11.368;2024-01-27T12:45:09;4.17;;;2.00;;
68989;SDS011;56046;47.270;11.368;2024-01-27T12:47:34;4.93;;;2.47;;
68989;SDS011;56046;47.270;11.368;2024-01-27T12:50:00;5.53;;;2.50;;
68989;SDS011;56046;47.270;11.368;2024-01-27T12:52:25;6.20;;;2.40;;
68989;SDS011;56046;47.270;11.368;2024-01-27T12:54:50;5.00;;;2.50;;
68989;SDS011;56046;47.270;11.368;2024-01-27T12:57:16;5.83;;;2.70;;
68989;SDS011;56046;47.270;11.368;2024-01-27T12:59:42;5.18;;;1.80;;
68989;SDS011;56046;47.270;11.368;2024-01-27T13:02:08;6.30;;;2.10;;
68989;SDS011;56046;47.270;11.368;2024-01-27T13:04:33;5.47;;;2.60;;
68989;SDS011;56046;47.270;11.368;2024-01-27T13:06:58;4.07;;;1.80;;
68989;SDS011;56046;47.270;11.368;2024-01-27T13:09:23;4.57;;;2.37;;
68989;SDS011;56046;47.270;11.368;2024-01-27T13:11:49;5.43;;;2.10;;
68989;SDS011;56046;47.270;11.368;2024-01-27T13:14:15;4.30;;;1.63;;
68989;SDS011;56046;47.270;11.368;2024-01-27T13:16:42;4.57;;;2.10;;
68989;SDS011;56046;47.270;11.368;2024-01-27T13:19:08;4.43;;;1.97;;
68989;SDS011;56046;47.270;11.368;2024-01-27T13:21:33;3.40;;;1.67;;
68989;SDS011;56046;47.270;11.368;2024-01-27T13:23:58;5.53;;;1.90;;
68989;SDS011;56046;47.270;11.368;2024-01-27T13:26:23;5.00;;;2.03;;
68989;SDS011;56046;47.270;11.368;2024-01-27T13:28:49;4.27;;;1.70;;
68989;SDS011;56046;47.270;11.368;2024-01-27T13:31:14;5.50;;;1.87;;
68989;SDS011;56046;47.270;11.368;2024-01-27T13:33:40;3.72;;;1.80;;
68989;SDS011;56046;47.270;11.368;2024-01-27T13:36:05;2.23;;;1.53;;
68989;SDS011;56046;47.270;11.368;2024-01-27T13:38:31;4.03;;;1.90;;
68989;SDS011;56046;47.270;11.368;2024-01-27T13:40:56;3.10;;;1.80;;
68989;SDS011;56046;47.270;11.368;2024-01-27T13:43:21;4.13;;;1.50;;
68989;SDS011;56046;47.270;11.368;2024-01-27T13:45:46;3.30;;;1.90;;
68989;SDS011;56046;47.270;11.368;2024-01-27T13:48:12;3.17;;;1.53;;
68989;SDS011;56046;47.270;11.368;2024-01-27T13:50:38;4.03;;;1.83;;
68989;SDS011;56046;47.270;11.368;2024-01-27T13:53:03;4.07;;;2.10;;
68989;SDS011;56046;47.270;11.368;2024-01-27T13:55:30;4.00;;;1.80;;
68989;SDS011;56046;47.270;11.368;2024-01-27T13:57:55;4.60;;;1.77;;
68989;SDS011;56046;47.270;11.368;2024-01-27T14:00:21;5.77;;;1.60;;
68989;SDS011;56046;47.270;11.368;2024-01-27T14:02:46;3.67;;;2.08;;
68989;SDS011;56046;47.270;11.368;2024-01-27T14:05:12;3.40;;;1.63;;
68989;SDS011;56046;47.270;11.368;2024-01-27T14:07:37;4.20;;;1.90;;
68989;SDS011;56046;47.270;11.368;2024-01-27T14:10:02;3.80;;;1.93;;
68989;SDS011;56046;47.270;11.368;2024-01-27T14:12:28;3.67;;;1.80;;
68989;SDS011;56046;47.270;11.368;2024-01-27T14:15:02;7.47;;;3.13;;
68989;SDS011;56046;47.270;11.368;2024-01-27T14:17:27;5.57;;;2.67;;
68989;SDS011;56046;47.270;11.368;2024-01-27T14:19:52;8.37;;;3.40;;
68989;SDS011;56046;47.270;11.368;2024-01-27T14:22:18;5.57;;;2.40;;
68989;SDS011;56046;47.270;11.368;2024-01-27T14:24:43;4.17;;;1.93;;